Time;durP1;ratioP1;P1;durP2;ratioP2;P2;SDS_P1;SDS_P2;PMS_P1;PMS_P2;Temp;Humidity;BMP_temperature;BMP_pressure;BME280_temperature;BME280_humidity;BME280_pressure;Samples;Min_cycle;Max_cycle;Signal;HPM_P1;HPM_P2
2021/12/26 00:34:15;147644.00;0.49;255.75;0.00;0.00;0.62;;;;;7.50;14.50;;;;;;2279267;61;929;-87
2021/12/26 01:33:38;112773.00;0.38;195.61;0.00;0.00;0.62;;;;;8.30;9.70;;;;;;2274869;61;965;-88
2021/12/26 02:00:56;179686.00;0.60;310.95;0.00;0.00;0.62;;;;;7.80;11.90;;;;;;2274710;61;904;-89
2021/12/26 02:10:50;108457.00;0.36;188.17;0.00;0.00;0.62;;;;;8.20;11.80;;;;;;2512424;55;3596;31
2021/12/26 02:33:10;345171.00;1.15;595.56;0.00;0.00;0.62;;;;;7.40;14.80;;;;;;2274709;61;891;-87
2021/12/26 03:05:30;222455.00;0.74;384.57;0.00;0.00;0.62;;;;;7.70;12.50;;;;;;2274526;61;892;-87
2021/12/26 04:42:51;135789.00;0.45;235.31;0.00;0.00;0.62;;;;;9.00;5.60;;;;;;2278319;61;1879;-89
2021/12/26 04:58:31;43515.00;0.15;75.97;0.00;0.00;0.62;;;;;7.90;9.20;;;;;;2518230;40;3553;31
2021/12/26 05:18:16;71221.00;0.24;123.87;0.00;0.00;0.62;;;;;8.50;7.80;;;;;;2523651;55;3596;31
2021/12/26 05:49:00;549288.00;1.83;946.73;74826.00;0.25;130.10;;;;;8.50;6.40;;;;;;2286154;61;1288;-89
2021/12/26 05:51:27;684822.00;2.28;1180.93;0.00;0.00;0.62;;;;;8.40;8.20;;;;;;2283790;61;1218;-89
2021/12/26 05:53:54;701335.00;2.34;1209.55;0.00;0.00;0.62;;;;;8.20;8.80;;;;;;2283734;61;1996;-89
2021/12/26 05:56:21;577650.00;1.93;995.64;10593.00;0.04;18.98;;;;;8.50;8.40;;;;;;2283845;61;1007;-88
2021/12/26 05:58:48;652770.00;2.18;1125.43;0.00;0.00;0.62;;;;;9.00;6.10;;;;;;2283771;61;1474;-89
2021/12/26 06:01:15;649483.00;2.16;1119.74;0.00;0.00;0.62;;;;;9.10;5.70;;;;;;2283809;61;1159;-89
2021/12/26 06:03:42;827853.00;2.76;1429.74;27377.00;0.09;48.04;;;;;9.30;5.70;;;;;;2283799;61;1050;-89
2021/12/26 06:06:10;644504.00;2.15;1111.13;0.00;0.00;0.62;;;;;9.10;4.90;;;;;;2281603;61;1046;-89
2021/12/26 06:08:37;613580.00;2.05;1057.67;0.00;0.00;0.62;;;;;8.70;6.50;;;;;;2281016;61;1380;-88
2021/12/26 06:11:04;572532.00;1.91;986.81;0.00;0.00;0.62;;;;;8.60;6.60;;;;;;2281024;61;1206;-89
2021/12/26 06:13:32;620944.00;2.07;1070.40;0.00;0.00;0.62;;;;;8.90;5.00;;;;;;2280983;61;1993;-88
2021/12/26 06:15:59;751857.00;2.51;1297.29;0.00;0.00;0.62;;;;;9.20;4.10;;;;;;2280938;61;1592;-89
2021/12/26 06:18:26;766742.00;2.56;1323.18;0.00;0.00;0.62;;;;;9.30;3.50;;;;;;2280975;61;1351;-88
2021/12/26 06:20:53;818833.00;2.73;1413.99;0.00;0.00;0.62;;;;;8.80;4.60;;;;;;2281037;61;931;-89
2021/12/26 06:23:21;478830.00;1.60;825.38;0.00;0.00;0.62;;;;;9.00;5.10;;;;;;2281038;61;1101;-89
2021/12/26 06:25:48;557741.00;1.86;961.31;0.00;0.00;0.62;;;;;9.40;3.80;;;;;;2280993;61;937;-89
2021/12/26 06:28:15;756567.00;2.52;1305.48;0.00;0.00;0.62;;;;;9.30;3.80;;;;;;2280930;61;1271;-88
2021/12/26 06:30:42;572635.00;1.91;986.99;3462.00;0.01;6.62;;;;;9.00;4.60;;;;;;2280992;61;927;-90
2021/12/26 06:33:10;603221.00;2.01;1039.78;0.00;0.00;0.62;;;;;9.00;5.70;;;;;;2280941;61;983;-88
2021/12/26 06:35:37;512099.00;1.71;882.66;0.00;0.00;0.62;;;;;8.80;5.70;;;;;;2280951;61;1989;-89
2021/12/26 06:38:04;639504.00;2.13;1102.48;24893.00;0.08;43.74;;;;;9.10;5.00;;;;;;2280918;61;1391;-88
2021/12/26 06:40:32;815412.00;2.72;1408.02;10018.00;0.03;17.98;;;;;9.20;4.70;;;;;;2280921;61;993;-89
2021/12/26 06:42:59;840410.00;2.80;1451.69;84849.00;0.28;147.41;;;;;9.30;4.80;;;;;;2280908;61;1104;-89
2021/12/26 06:45:26;1052737.00;3.51;1826.10;10171.00;0.03;18.25;;;;;9.40;4.40;;;;;;2280896;61;954;-89
2021/12/26 06:47:56;492922.00;1.64;849.64;0.00;0.00;0.62;;;;;9.60;3.40;;;;;;2280826;61;1364;-89
2021/12/26 06:50:23;821183.00;2.74;1418.09;0.00;0.00;0.62;;;;;9.70;3.00;;;;;;2280449;61;1164;-89
2021/12/26 06:52:50;780013.00;2.60;1346.29;0.00;0.00;0.62;;;;;9.60;3.20;;;;;;2280904;61;1004;-90
2021/12/26 06:55:17;687869.00;2.29;1186.21;0.00;0.00;0.62;;;;;9.80;2.80;;;;;;2280910;61;1989;-89
2021/12/26 06:57:46;659056.00;2.20;1136.31;0.00;0.00;0.62;;;;;9.70;2.60;;;;;;2280806;61;1825;-90
2021/12/26 07:00:15;404041.00;1.35;696.75;0.00;0.00;0.62;;;;;9.60;3.00;;;;;;2280911;61;1046;-89
2021/12/26 07:02:43;486344.00;1.62;838.32;0.00;0.00;0.62;;;;;9.70;3.20;;;;;;2280868;61;998;-89
2021/12/26 07:05:11;571787.00;1.91;985.53;0.00;0.00;0.62;;;;;9.40;4.00;;;;;;2280855;61;1110;-89
2021/12/26 07:07:38;521540.00;1.74;898.92;0.00;0.00;0.62;;;;;9.40;4.60;;;;;;2280581;61;1742;-89
2021/12/26 07:10:06;761811.00;2.54;1314.60;15026.00;0.05;26.66;;;;;9.50;4.20;;;;;;2280839;61;1299;-87
2021/12/26 07:12:33;605323.00;2.02;1043.41;12237.00;0.04;21.82;;;;;9.50;3.60;;;;;;2280850;61;932;-89
2021/12/26 07:15:01;683585.00;2.28;1178.78;0.00;0.00;0.62;;;;;9.40;4.20;;;;;;2280687;61;1990;-89
2021/12/26 07:17:28;486206.00;1.62;838.08;0.00;0.00;0.62;;;;;9.30;3.90;;;;;;2280563;61;1639;-89
2021/12/26 07:19:55;595373.00;1.98;1026.23;17271.00;0.06;30.54;;;;;9.30;4.40;;;;;;2280108;61;1356;-89
2021/12/26 07:22:22;872579.00;2.91;1508.01;48683.00;0.16;84.91;;;;;9.20;4.70;;;;;;2280783;61;988;-89
2021/12/26 07:24:49;801053.00;2.67;1382.96;0.00;0.00;0.62;;;;;9.30;4.20;;;;;;2280836;61;1203;-89
2021/12/26 07:27:16;647891.00;2.16;1116.99;0.00;0.00;0.62;;;;;9.30;4.80;;;;;;2280794;61;1062;-88
2021/12/26 07:29:44;1050744.00;3.50;1822.56;39072.00;0.13;68.28;;;;;9.30;4.30;;;;;;2280731;61;1423;-89
2021/12/26 07:32:12;728455.00;2.43;1256.62;2062.00;0.01;4.19;;;;;9.40;4.20;;;;;;2280782;61;1127;-88
2021/12/26 07:34:40;492181.00;1.64;848.36;0.00;0.00;0.62;;;;;9.20;4.60;;;;;;2280798;61;1994;-88
2021/12/26 07:37:08;701252.00;2.34;1209.41;0.00;0.00;0.62;;;;;9.00;5.50;;;;;;2280775;61;1760;-88
2021/12/26 07:39:36;618822.00;2.06;1066.73;0.00;0.00;0.62;;;;;9.30;5.30;;;;;;2280750;61;1427;-87
2021/12/26 07:42:04;457610.00;1.53;788.87;0.00;0.00;0.62;;;;;9.60;4.10;;;;;;2280770;61;1038;-88
2021/12/26 07:44:31;752269.00;2.51;1298.00;5893.00;0.02;10.83;;;;;9.80;3.40;;;;;;2280773;61;898;-88
2021/12/26 07:46:58;643025.00;2.14;1108.57;0.00;0.00;0.62;;;;;9.80;2.90;;;;;;2280725;61;1128;-87
2021/12/26 07:49:27;642133.00;2.14;1107.03;0.00;0.00;0.62;;;;;9.80;2.80;;;;;;2280686;61;1403;-89
2021/12/26 07:51:56;538631.00;1.80;928.36;0.00;0.00;0.62;;;;;9.70;3.70;;;;;;2280670;61;1788;-88
2021/12/26 07:54:23;753453.00;2.51;1300.06;0.00;0.00;0.62;;;;;9.90;3.80;;;;;;2280713;61;1989;-88
2021/12/26 07:56:51;648314.00;2.16;1117.72;0.00;0.00;0.62;;;;;10.10;2.20;;;;;;2280729;61;1111;-88
2021/12/26 07:59:18;523628.00;1.75;902.51;0.00;0.00;0.62;;;;;10.10;1.90;;;;;;2280678;61;1323;-88
2021/12/26 08:01:47;663871.00;2.21;1144.64;10829.00;0.04;19.39;;;;;10.20;1.20;;;;;;2280722;61;1007;-89
2021/12/26 08:04:15;651484.00;2.17;1123.20;0.00;0.00;0.62;;;;;10.30;1.00;;;;;;2280728;61;1143;-89
2021/12/26 08:06:43;529642.00;1.77;912.88;0.00;0.00;0.62;;;;;10.20;1.90;;;;;;2280714;61;996;-89
2021/12/26 08:09:10;666020.00;2.22;1148.36;0.00;0.00;0.62;;;;;10.20;1.30;;;;;;2280693;61;1340;-88
2021/12/26 08:11:37;693730.00;2.31;1196.37;0.00;0.00;0.62;;;;;10.30;1.50;;;;;;2280661;61;1459;-89
2021/12/26 08:14:05;812712.00;2.71;1403.30;0.00;0.00;0.62;;;;;10.00;1.90;;;;;;2280627;61;1990;-89
2021/12/26 08:16:32;772458.00;2.57;1333.13;0.00;0.00;0.62;;;;;9.90;2.20;;;;;;2280649;61;980;-89
2021/12/26 08:18:59;739075.00;2.46;1275.07;0.00;0.00;0.62;;;;;10.20;1.50;;;;;;2280638;61;1299;-89
2021/12/26 08:21:26;783710.00;2.61;1352.73;0.00;0.00;0.62;;;;;10.10;1.50;;;;;;2276885;61;992;-89
2021/12/26 08:23:54;704792.00;2.35;1215.55;0.00;0.00;0.62;;;;;10.40;1.00;;;;;;2280485;61;1671;-89
2021/12/26 08:26:21;675090.00;2.25;1164.07;0.00;0.00;0.62;;;;;10.50;1.00;;;;;;2280642;61;1027;-88
2021/12/26 08:28:48;752933.00;2.51;1299.16;0.00;0.00;0.62;;;;;10.60;1.00;;;;;;2280499;61;1313;-88
2021/12/26 08:31:17;684330.00;2.28;1180.08;22652.00;0.08;39.86;;;;;10.30;1.00;;;;;;2280618;61;1093;-89
2021/12/26 08:33:44;622812.00;2.08;1073.63;0.00;0.00;0.62;;;;;10.60;1.00;;;;;;2280058;61;977;-88
2021/12/26 08:36:11;528015.00;1.76;910.07;0.00;0.00;0.62;;;;;10.30;1.00;;;;;;2280581;61;2013;-89
2021/12/26 08:38:39;741103.00;2.47;1278.59;0.00;0.00;0.62;;;;;10.40;1.00;;;;;;2280473;61;1540;-89
2021/12/26 08:41:12;740503.00;2.47;1277.55;0.00;0.00;0.62;;;;;10.70;1.00;;;;;;2276033;61;981;-88
2021/12/26 08:43:41;530674.00;1.77;914.65;0.00;0.00;0.62;;;;;10.70;1.00;;;;;;2275934;61;1473;-89
2021/12/26 08:46:08;453689.00;1.51;782.13;0.00;0.00;0.62;;;;;10.90;1.00;;;;;;2267838;61;1078;-89
2021/12/26 08:48:35;451589.00;1.51;778.52;0.00;0.00;0.62;;;;;10.90;1.00;;;;;;2267849;61;1712;-89
2021/12/26 08:51:02;785585.00;2.62;1356.00;0.00;0.00;0.62;;;;;10.70;1.00;;;;;;2267835;61;1697;-89
2021/12/26 08:53:31;791887.00;2.64;1366.98;0.00;0.00;0.62;;;;;10.60;1.00;;;;;;2267812;61;1121;-90
2021/12/26 08:55:59;615530.00;2.05;1061.04;0.00;0.00;0.62;;;;;10.60;1.00;;;;;;2267817;61;1932;-88
2021/12/26 08:58:28;638003.00;2.13;1099.89;0.00;0.00;0.62;;;;;10.60;1.00;;;;;;2269343;61;1440;-89
2021/12/26 09:00:55;751695.00;2.51;1297.00;0.00;0.00;0.62;;;;;10.70;1.00;;;;;;2275907;61;1780;-90
2021/12/26 09:03:22;565695.00;1.89;975.02;0.00;0.00;0.62;;;;;10.80;1.00;;;;;;2276523;61;1682;-90
2021/12/26 09:05:49;543775.00;1.81;937.23;0.00;0.00;0.62;;;;;11.20;1.00;;;;;;2280471;61;1096;-89
2021/12/26 09:08:16;640436.00;2.13;1104.09;0.00;0.00;0.62;;;;;11.20;1.00;;;;;;2280422;61;1371;-89
2021/12/26 09:10:44;627530.00;2.09;1081.78;0.00;0.00;0.62;;;;;11.00;1.00;;;;;;2280493;61;1161;-89
2021/12/26 09:13:11;433403.00;1.44;747.24;0.00;0.00;0.62;;;;;10.90;1.00;;;;;;2280469;61;996;-89
2021/12/26 09:15:39;521995.00;1.74;899.70;0.00;0.00;0.62;;;;;10.80;1.00;;;;;;2280313;61;1919;-88
2021/12/26 09:18:06;610814.00;2.04;1052.90;16474.00;0.05;29.16;;;;;11.00;1.00;;;;;;2276701;61;1422;-89
2021/12/26 09:20:34;437595.00;1.46;754.45;48192.00;0.16;84.06;;;;;10.90;1.00;;;;;;2276726;61;946;-88
2021/12/26 09:23:01;633350.00;2.11;1091.84;20872.00;0.07;36.78;;;;;11.00;1.00;;;;;;2280509;61;991;-89
2021/12/26 09:25:28;543832.00;1.81;937.33;5400.00;0.02;9.98;;;;;11.10;1.00;;;;;;2280509;61;1113;-89
2021/12/26 09:27:56;666211.00;2.22;1148.69;0.00;0.00;0.62;;;;;11.00;1.00;;;;;;2280422;61;1361;-88
2021/12/26 09:30:23;489364.00;1.63;843.51;0.00;0.00;0.62;;;;;11.20;1.00;;;;;;2280460;61;911;-89
2021/12/26 09:32:52;445352.00;1.48;767.79;0.00;0.00;0.62;;;;;11.40;1.00;;;;;;2280445;61;1074;-88
2021/12/26 09:35:19;629885.00;2.10;1085.85;0.00;0.00;0.62;;;;;11.40;1.00;;;;;;2280434;61;2008;-88
2021/12/26 09:37:46;583973.00;1.95;1006.55;0.00;0.00;0.62;;;;;11.30;1.00;;;;;;2280328;61;1367;-88
2021/12/26 09:40:16;492594.00;1.64;849.07;13657.00;0.05;24.28;;;;;11.20;1.00;;;;;;2280356;61;1482;-88
2021/12/26 09:42:45;568917.00;1.90;980.58;0.00;0.00;0.62;;;;;11.20;1.00;;;;;;2281229;61;1807;-89
2021/12/26 09:45:13;618304.00;2.06;1065.84;0.00;0.00;0.62;;;;;11.30;1.00;;;;;;2273941;61;1074;-88
2021/12/26 09:47:42;654388.00;2.18;1128.23;0.00;0.00;0.62;;;;;11.40;1.00;;;;;;2280976;61;1416;-87
2021/12/26 09:50:13;350622.00;1.17;604.93;0.00;0.00;0.62;;;;;11.50;1.00;;;;;;2281030;61;1047;-88
2021/12/26 09:52:42;325900.00;1.09;562.44;0.00;0.00;0.62;;;;;11.60;1.00;;;;;;2281061;61;1129;-88
2021/12/26 09:55:11;297301.00;0.99;513.28;0.00;0.00;0.62;;;;;11.80;1.00;;;;;;2280848;61;1915;-88
2021/12/26 09:57:39;225121.00;0.75;389.15;0.00;0.00;0.62;;;;;11.80;1.00;;;;;;2277138;61;1303;-88
2021/12/26 10:00:20;319840.00;1.07;552.02;0.00;0.00;0.62;;;;;11.80;1.00;;;;;;2281165;61;1117;-88
2021/12/26 10:03:07;417736.00;1.39;720.30;0.00;0.00;0.62;;;;;11.90;1.00;;;;;;2281132;61;1052;-88
2021/12/26 10:06:00;310492.00;1.03;535.96;0.00;0.00;0.62;;;;;12.20;1.00;;;;;;2281084;61;988;-89
2021/12/26 10:08:29;358265.00;1.19;618.07;0.00;0.00;0.62;;;;;12.40;1.00;;;;;;2277165;61;1463;-87
2021/12/26 10:11:33;439007.00;1.46;756.88;0.00;0.00;0.62;;;;;12.60;1.00;;;;;;2281088;61;1005;-86
2021/12/26 10:17:40;908803.00;3.03;1571.59;99126.00;0.33;172.06;;;;;12.10;1.00;;;;;;2256296;61;1254;-86
2021/12/26 10:20:14;455941.00;1.52;786.00;0.00;0.00;0.62;;;;;12.30;1.00;;;;;;2256240;61;1851;-88
2021/12/26 10:22:52;583261.00;1.94;1005.33;0.00;0.00;0.62;;;;;12.30;1.00;;;;;;2256067;61;1625;-87
2021/12/26 10:25:32;507011.00;1.69;873.90;0.00;0.00;0.62;;;;;12.30;1.00;;;;;;2256299;61;1286;-88
2021/12/26 10:28:57;;;;;;;;;;;;;;;;;;;;;
2021/12/26 10:31:39;461859.00;1.54;796.18;0.00;0.00;0.62;;;;;12.40;1.00;;;;;;2251908;61;1428;-89
2021/12/26 10:37:43;375415.00;1.25;647.54;0.00;0.00;0.62;;;;;12.40;1.00;;;;;;2265145;61;1586;-89
2021/12/26 10:40:47;526033.00;1.75;906.66;0.00;0.00;0.62;;;;;12.50;1.00;;;;;;2268220;61;1395;-88
2021/12/26 10:43:45;421711.00;1.41;727.13;0.00;0.00;0.62;;;;;12.60;1.00;;;;;;2268157;61;1185;-88
2021/12/26 10:46:55;;;;;;;;;;;;;;;;;;;;;
2021/12/26 10:52:42;590280.00;1.97;1017.44;0.00;0.00;0.62;;;;;12.90;1.00;;;;;;2265950;61;1545;-87
2021/12/26 10:55:55;622929.00;2.08;1073.83;11025.00;0.04;19.72;;;;;12.90;1.00;;;;;;2268020;61;1914;-88
2021/12/26 10:59:01;247242.00;0.82;427.21;0.00;0.00;0.62;;;;;13.00;1.00;;;;;;2268063;61;1775;-87
2021/12/26 11:02:03;;;;;;;;;;;;;;;;;;;;;
2021/12/26 11:11:09;572894.00;1.91;987.44;0.00;0.00;0.62;;;;;13.20;1.00;;;;;;2280499;61;1227;-87
2021/12/26 11:14:03;349361.00;1.16;602.76;0.00;0.00;0.62;;;;;13.20;1.00;;;;;;2280747;61;1090;-87
2021/12/26 11:19:47;434747.00;1.45;749.55;0.00;0.00;0.62;;;;;13.60;1.00;;;;;;2276125;61;1281;-88
2021/12/26 11:22:28;729817.00;2.43;1258.98;89290.00;0.30;155.08;;;;;13.70;1.00;;;;;;2276131;61;1637;-88
2021/12/26 11:24:57;783776.00;2.61;1352.84;69839.00;0.23;121.48;;;;;13.60;1.00;;;;;;2275997;61;1602;-87
2021/12/26 11:27:45;852386.00;2.84;1472.64;90228.00;0.30;156.70;;;;;13.60;1.00;;;;;;2276034;61;1674;-88
2021/12/26 11:30:12;385477.00;1.28;664.84;0.00;0.00;0.62;;;;;13.30;1.00;;;;;;2276077;61;1095;-87
2021/12/26 11:32:42;369750.00;1.23;637.81;0.00;0.00;0.62;;;;;12.80;1.00;;;;;;2276177;61;929;-87
2021/12/26 11:35:10;366125.00;1.22;631.58;0.00;0.00;0.62;;;;;12.40;1.00;;;;;;2275982;61;2014;-87
2021/12/26 11:37:39;472134.00;1.57;813.86;0.00;0.00;0.62;;;;;11.90;1.00;;;;;;2276051;61;1411;-87
2021/12/26 11:40:11;594277.00;1.98;1024.34;0.00;0.00;0.62;;;;;11.80;1.20;;;;;;2276207;61;1108;-87
2021/12/26 11:43:13;1211469.00;4.04;2110.97;0.00;0.00;0.62;;;;;11.90;1.50;;;;;;2276201;61;1140;-87
2021/12/26 11:45:50;428636.00;1.43;739.04;0.00;0.00;0.62;;;;;11.80;1.60;;;;;;2263938;61;1818;-86
2021/12/26 11:48:52;601279.00;2.00;1036.43;0.00;0.00;0.62;;;;;12.20;1.00;;;;;;2263949;61;1257;-86
2021/12/26 11:51:44;481264.00;1.60;829.57;40839.00;0.14;71.34;;;;;12.10;1.00;;;;;;2263947;61;1011;-87
2021/12/26 11:54:36;286888.00;0.96;495.38;0.00;0.00;0.62;;;;;12.40;1.00;;;;;;2263989;61;1159;-87
2021/12/26 11:57:14;309748.00;1.03;534.68;0.00;0.00;0.62;;;;;12.60;1.00;;;;;;2269803;61;1971;-87
2021/12/26 12:00:09;848883.00;2.83;1466.51;87053.00;0.29;151.22;;;;;12.70;1.00;;;;;;2272062;61;1291;-87
2021/12/26 12:02:41;495775.00;1.65;854.55;0.00;0.00;0.62;;;;;12.70;1.00;;;;;;2271882;61;1569;-87
2021/12/26 12:05:11;561865.00;1.87;968.42;0.00;0.00;0.62;;;;;12.70;1.00;;;;;;2272072;61;1152;-87
2021/12/26 12:07:51;847666.00;2.83;1464.38;13677.00;0.05;24.32;;;;;12.90;1.00;;;;;;2272014;61;1598;-88
2021/12/26 12:10:43;873924.00;2.91;1510.37;39908.00;0.13;69.73;;;;;13.10;1.00;;;;;;2271968;61;1575;-88
2021/12/26 12:13:13;450781.00;1.50;777.13;0.00;0.00;0.62;;;;;13.10;1.00;;;;;;2272042;61;1513;-86
2021/12/26 12:15:53;420430.00;1.40;724.93;0.00;0.00;0.62;;;;;13.20;1.00;;;;;;2271882;61;2014;-87
2021/12/26 12:18:23;744847.00;2.48;1285.10;3990.00;0.01;7.54;;;;;12.90;1.00;;;;;;2271998;61;1611;-89
2021/12/26 12:21:09;510468.00;1.70;879.85;0.00;0.00;0.62;;;;;12.80;1.00;;;;;;2272005;61;1504;-87
2021/12/26 12:23:39;781152.00;2.60;1348.27;0.00;0.00;0.62;;;;;12.80;1.00;;;;;;2279549;61;1699;-87
2021/12/26 12:26:08;546354.00;1.82;941.67;0.00;0.00;0.62;;;;;12.60;1.00;;;;;;2280517;61;1630;-87
2021/12/26 12:28:43;756625.00;2.52;1305.58;0.00;0.00;0.62;;;;;12.70;1.00;;;;;;2280567;61;1532;-87
2021/12/26 12:31:22;551872.00;1.84;951.19;83978.00;0.28;145.91;;;;;12.80;1.00;;;;;;2280550;61;1626;-88
2021/12/26 12:34:03;386913.00;1.29;667.31;42150.00;0.14;73.61;;;;;13.10;1.00;;;;;;2280637;61;1416;-88
2021/12/26 12:36:33;593350.00;1.98;1022.74;79222.00;0.26;137.69;;;;;13.50;1.00;;;;;;2280552;61;1931;-88
2021/12/26 12:39:19;651292.00;2.17;1122.87;87372.00;0.29;151.77;;;;;13.70;1.00;;;;;;2280599;61;1313;-87
2021/12/26 12:41:48;299032.00;1.00;516.26;0.00;0.00;0.62;;;;;13.60;1.00;;;;;;2280543;61;1118;-87
2021/12/26 12:44:33;221661.00;0.74;383.20;0.00;0.00;0.62;;;;;13.70;1.00;;;;;;2280529;61;1156;-87
2021/12/26 12:47:13;388031.00;1.29;669.23;0.00;0.00;0.62;;;;;13.80;1.00;;;;;;2280495;61;1752;-87
2021/12/26 12:49:47;290499.00;0.97;501.59;0.00;0.00;0.62;;;;;13.90;1.00;;;;;;2280481;61;2024;-87
2021/12/26 12:52:39;390909.00;1.30;674.18;0.00;0.00;0.62;;;;;14.20;1.00;;;;;;2280239;61;1444;-87
2021/12/26 12:55:08;269947.00;0.90;466.25;0.00;0.00;0.62;;;;;14.30;1.00;;;;;;2280508;61;1688;-88
2021/12/26 12:57:39;256083.00;0.85;442.41;0.00;0.00;0.62;;;;;14.40;1.00;;;;;;2280388;61;1544;-87
2021/12/26 13:00:41;308102.00;1.03;531.85;0.00;0.00;0.62;;;;;14.00;1.00;;;;;;2280463;61;1554;-88
2021/12/26 13:03:16;175526.00;0.59;303.78;0.00;0.00;0.62;;;;;14.00;1.00;;;;;;2280597;61;992;-88
2021/12/26 13:05:45;612992.00;2.04;1056.66;0.00;0.00;0.62;;;;;13.80;1.00;;;;;;2279930;61;1068;-88
2021/12/26 13:08:16;148634.00;0.50;257.45;0.00;0.00;0.62;;;;;14.00;1.00;;;;;;2280426;61;1316;-88
2021/12/26 13:10:44;135423.00;0.45;234.68;0.00;0.00;0.62;;;;;14.10;1.00;;;;;;2280416;61;1583;-88
2021/12/26 13:13:13;235993.00;0.79;407.86;0.00;0.00;0.62;;;;;14.10;1.00;;;;;;2280302;61;1544;-88
2021/12/26 13:15:54;240476.00;0.80;415.57;0.00;0.00;0.62;;;;;14.00;1.00;;;;;;2280572;61;1927;-87
2021/12/26 13:18:26;337902.00;1.13;583.07;0.00;0.00;0.62;;;;;13.80;1.00;;;;;;2281063;61;1408;-87
2021/12/26 13:20:58;364215.00;1.21;628.29;0.00;0.00;0.62;;;;;13.80;1.00;;;;;;2280981;61;1590;-88
2021/12/26 13:23:26;136133.00;0.45;235.90;0.00;0.00;0.62;;;;;14.00;1.00;;;;;;2281053;61;1794;-88
2021/12/26 13:25:54;421358.00;1.40;726.53;33775.00;0.11;59.12;;;;;13.90;1.00;;;;;;2281031;61;1434;-88
2021/12/26 13:28:27;519541.00;1.73;895.47;0.00;0.00;0.62;;;;;14.00;1.00;;;;;;2281064;61;1387;-87
2021/12/26 13:30:59;455874.00;1.52;785.89;147.00;0.00;0.87;;;;;14.40;1.00;;;;;;2281066;61;1556;-88
2021/12/26 13:33:31;361151.00;1.20;623.03;0.00;0.00;0.62;;;;;14.60;1.00;;;;;;2281059;61;1571;-88
2021/12/26 13:36:00;394061.00;1.31;679.60;0.00;0.00;0.62;;;;;14.30;1.00;;;;;;2281092;61;1925;-88
2021/12/26 13:38:34;307065.00;1.02;530.06;0.00;0.00;0.62;;;;;14.70;1.00;;;;;;2280963;61;1496;-87
2021/12/26 13:41:19;354002.00;1.18;610.74;0.00;0.00;0.62;;;;;14.70;1.00;;;;;;2281109;61;1093;-87
2021/12/26 13:43:49;683975.00;2.28;1179.46;86508.00;0.29;150.28;;;;;14.60;1.00;;;;;;2280992;61;887;-88
2021/12/26 13:46:20;613285.00;2.04;1057.16;87943.00;0.29;152.76;;;;;14.20;1.00;;;;;;2281051;61;1144;-88
2021/12/26 13:48:54;566025.00;1.89;975.59;96719.00;0.32;167.91;;;;;14.50;1.00;;;;;;2280989;61;1348;-87
2021/12/26 13:51:26;840438.00;2.80;1451.74;82561.00;0.28;143.46;;;;;14.30;1.00;;;;;;2280994;61;1492;-87
2021/12/26 13:53:58;796819.00;2.66;1375.58;84852.00;0.28;147.42;;;;;14.30;1.00;;;;;;2281070;61;1119;-88
2021/12/26 13:56:25;705294.00;2.35;1216.42;91665.00;0.31;159.18;;;;;14.40;1.00;;;;;;2280768;61;1917;-87
2021/12/26 13:58:54;893607.00;2.98;1544.89;90236.00;0.30;156.72;;;;;14.10;1.00;;;;;;2281097;61;1341;-87
2021/12/26 14:01:24;699277.00;2.33;1205.98;87650.00;0.29;152.25;;;;;14.20;1.00;;;;;;2281041;61;1175;-88
2021/12/26 14:03:52;439072.00;1.46;756.99;73014.00;0.24;126.97;;;;;14.30;1.00;;;;;;2281036;61;1582;-88
2021/12/26 14:06:27;556094.00;1.85;958.47;92802.00;0.31;161.15;;;;;14.30;1.00;;;;;;2280918;61;1524;-88
2021/12/26 14:08:59;380420.00;1.27;656.15;88251.00;0.29;153.29;;;;;13.60;1.00;;;;;;2281066;61;1360;-87
2021/12/26 14:11:27;730687.00;2.44;1260.50;82152.00;0.27;142.75;;;;;13.00;1.00;;;;;;2281132;61;1570;-87
2021/12/26 14:14:05;439956.00;1.47;758.51;88162.00;0.29;153.13;;;;;13.00;1.00;;;;;;2281081;61;1568;-87
2021/12/26 14:16:34;700530.00;2.34;1208.16;87260.00;0.29;151.58;;;;;13.00;1.00;;;;;;2281012;61;2002;-86
2021/12/26 14:19:13;677618.00;2.26;1168.45;84329.00;0.28;146.51;;;;;12.70;1.00;;;;;;2281024;61;1755;-86
2021/12/26 14:21:46;792328.00;2.64;1367.75;71874.00;0.24;125.00;;;;;12.10;2.60;;;;;;2281005;61;1690;-88
2021/12/26 14:24:19;567279.00;1.89;977.75;0.00;0.00;0.62;;;;;11.70;4.50;;;;;;2281000;61;1434;-87
2021/12/26 14:26:48;759768.00;2.53;1311.05;0.00;0.00;0.62;;;;;11.50;5.30;;;;;;2280814;61;1570;-87
2021/12/26 14:29:20;618380.00;2.06;1065.97;0.00;0.00;0.62;;;;;11.70;6.00;;;;;;2280959;61;1624;-87
2021/12/26 14:31:50;435444.00;1.45;750.75;0.00;0.00;0.62;;;;;12.00;4.40;;;;;;2281094;61;984;-88
2021/12/26 14:34:25;691814.00;2.31;1193.05;32466.00;0.11;56.85;;;;;12.00;4.60;;;;;;2280914;61;1645;-87
2021/12/26 14:36:54;181808.00;0.61;314.60;0.00;0.00;0.62;;;;;12.30;4.00;;;;;;2280932;61;1999;-88
2021/12/26 14:39:34;211521.00;0.71;365.75;0.00;0.00;0.62;;;;;12.60;3.40;;;;;;2280894;61;1388;-88
2021/12/26 14:42:06;248825.00;0.83;429.93;0.00;0.00;0.62;;;;;12.80;2.70;;;;;;2280934;61;1153;-88
2021/12/26 14:44:39;261451.00;0.87;451.64;0.00;0.00;0.62;;;;;13.00;1.60;;;;;;2280891;61;1139;-88
2021/12/26 14:47:12;309761.00;1.03;534.70;0.00;0.00;0.62;;;;;13.00;1.50;;;;;;2280792;61;1006;-87
2021/12/26 14:53:03;336877.00;1.12;581.31;0.00;0.00;0.62;;;;;13.10;2.10;;;;;;2280869;61;675;-86
2021/12/26 14:55:32;183831.00;0.61;318.09;0.00;0.00;0.62;;;;;12.70;2.80;;;;;;2280956;61;1275;-85
2021/12/26 14:58:08;376170.00;1.25;648.84;0.00;0.00;0.62;;;;;12.60;3.60;;;;;;2280723;61;2016;-88
2021/12/26 15:00:36;299691.00;1.00;517.39;0.00;0.00;0.62;;;;;12.80;2.60;;;;;;2280889;61;1252;-86
2021/12/26 15:03:11;297734.00;0.99;514.02;0.00;0.00;0.62;;;;;13.00;1.70;;;;;;2280958;61;1121;-88
2021/12/26 15:05:38;488486.00;1.63;842.00;65206.00;0.22;113.48;;;;;13.20;1.50;;;;;;2280996;61;1052;-86
2021/12/26 15:08:11;447815.00;1.49;772.02;0.00;0.00;0.62;;;;;13.20;1.20;;;;;;2280837;61;1624;-86
2021/12/26 15:10:42;368350.00;1.23;635.40;0.00;0.00;0.62;;;;;13.20;1.20;;;;;;2280812;61;1609;-86
2021/12/26 15:13:12;333070.00;1.11;574.76;0.00;0.00;0.62;;;;;13.30;1.00;;;;;;2280889;61;1069;-87
2021/12/26 15:15:43;322016.00;1.07;555.76;0.00;0.00;0.62;;;;;13.00;1.00;;;;;;2280794;61;1761;-87
2021/12/26 15:18:15;284925.00;0.95;492.00;0.00;0.00;0.62;;;;;13.10;1.50;;;;;;2280797;61;1997;-88
2021/12/26 15:20:47;243692.00;0.81;421.10;0.00;0.00;0.62;;;;;13.10;1.10;;;;;;2280841;61;1762;-87
2021/12/26 15:23:19;373319.00;1.24;643.94;0.00;0.00;0.62;;;;;12.30;3.20;;;;;;2280812;61;1087;-88
2021/12/26 15:25:54;347062.00;1.16;598.81;0.00;0.00;0.62;;;;;12.00;4.20;;;;;;2280760;61;1586;-86
2021/12/26 15:28:24;290376.00;0.97;501.38;0.00;0.00;0.62;;;;;11.90;4.80;;;;;;2280749;61;1491;-87
2021/12/26 15:31:06;476073.00;1.59;820.64;0.00;0.00;0.62;;;;;12.00;4.00;;;;;;2280740;61;1686;-88
2021/12/26 15:33:40;455325.00;1.52;784.94;0.00;0.00;0.62;;;;;11.90;4.60;;;;;;2280667;61;1508;-86
2021/12/26 15:36:11;322584.00;1.08;556.74;0.00;0.00;0.62;;;;;12.10;4.30;;;;;;2280712;61;1997;-87
2021/12/26 15:38:40;370076.00;1.23;638.37;0.00;0.00;0.62;;;;;12.00;3.90;;;;;;2280469;61;1364;-88
2021/12/26 15:41:11;430326.00;1.43;741.95;0.00;0.00;0.62;;;;;12.10;4.50;;;;;;2280695;61;1101;-87
2021/12/26 15:43:39;391198.00;1.30;674.67;0.00;0.00;0.62;;;;;12.30;3.90;;;;;;2280700;61;1422;-86
2021/12/26 15:46:13;501470.00;1.67;864.35;0.00;0.00;0.62;;;;;12.10;3.40;;;;;;2280689;61;1125;-87
2021/12/26 15:48:40;312440.00;1.04;539.30;0.00;0.00;0.62;;;;;12.00;3.90;;;;;;2280559;61;1530;-88
2021/12/26 15:51:09;345041.00;1.15;595.34;0.00;0.00;0.62;;;;;12.20;3.90;;;;;;2280679;61;1010;-87
2021/12/26 15:53:36;495583.00;1.65;854.22;0.00;0.00;0.62;;;;;12.40;3.50;;;;;;2280622;61;922;-88
2021/12/26 15:56:05;707540.00;2.36;1220.32;12155.00;0.04;21.68;;;;;12.40;2.40;;;;;;2280688;61;1921;-86
2021/12/26 15:58:33;396610.00;1.32;683.98;0.00;0.00;0.62;;;;;12.50;2.40;;;;;;2280770;61;1397;-87
2021/12/26 16:01:00;371625.00;1.24;641.03;0.00;0.00;0.62;;;;;12.60;2.50;;;;;;2280696;61;1689;-87
2021/12/26 16:03:27;396677.00;1.32;684.09;0.00;0.00;0.62;;;;;12.70;2.70;;;;;;2280671;61;1437;-87
2021/12/26 16:05:54;454614.00;1.52;783.72;0.00;0.00;0.62;;;;;12.70;1.20;;;;;;2280734;61;1450;-87